createdAt,value
2023-04-18T00:04:15.019Z,89.55
2023-04-18T00:09:18.413Z,90.06
2023-04-18T00:14:23.284Z,90.35
2023-04-18T00:19:26.386Z,90.65
2023-04-18T00:24:29.476Z,90.89
2023-04-18T00:29:32.426Z,91.09
2023-04-18T00:34:35.692Z,91.40
2023-04-18T00:39:38.636Z,91.48
2023-04-18T00:44:41.559Z,91.16
2023-04-18T00:49:45.783Z,91.05
2023-04-18T00:54:49.077Z,90.93
2023-04-18T00:59:52.453Z,90.54
2023-04-18T01:04:55.492Z,89.52
2023-04-18T01:09:58.825Z,88.81
2023-04-18T01:15:03.908Z,88.54
2023-04-18T01:20:07.968Z,88.42
2023-04-18T01:25:11.556Z,87.84
2023-04-18T01:30:14.534Z,87.59
2023-04-18T01:35:18.231Z,87.27
2023-04-18T01:40:21.338Z,86.30
2023-04-18T01:45:24.416Z,86.66
2023-04-18T01:50:27.948Z,86.43
2023-04-18T01:55:30.914Z,86.06
2023-04-18T02:00:34.094Z,85.88
2023-04-18T02:05:37.589Z,86.03
2023-04-18T02:10:41.817Z,85.67
2023-04-18T02:15:46.137Z,85.66
2023-04-18T02:20:49.086Z,85.26
2023-04-18T02:25:52.116Z,85.34
2023-04-18T02:30:55.990Z,85.56
2023-04-18T02:35:58.972Z,85.29
2023-04-18T02:41:02.115Z,85.18
2023-04-18T02:46:05.238Z,84.55
2023-04-18T02:51:09.458Z,84.68
2023-04-18T02:56:17.070Z,84.30
2023-04-18T03:01:20.513Z,84.38
2023-04-18T03:06:23.478Z,84.47
2023-04-18T03:11:26.583Z,83.67
2023-04-18T03:16:29.785Z,82.68
2023-04-18T03:21:32.748Z,82.52
2023-04-18T03:26:36.444Z,82.22
2023-04-18T03:31:39.540Z,81.89
2023-04-18T03:36:42.673Z,81.91
2023-04-18T03:41:45.372Z,81.83
2023-04-18T03:46:48.400Z,81.35
2023-04-18T03:51:52.188Z,80.23
2023-04-18T03:56:55.924Z,80.59
2023-04-18T04:01:58.776Z,80.56
2023-04-18T04:07:02.046Z,80.61
2023-04-18T04:12:05.611Z,80.25
2023-04-18T04:17:08.560Z,80.73
2023-04-18T04:22:11.599Z,80.68
2023-04-18T04:27:14.507Z,80.88
2023-04-18T04:32:17.478Z,81.61
2023-04-18T04:37:20.454Z,82.12
2023-04-18T04:42:25.313Z,81.98
2023-04-18T04:47:28.804Z,81.97
2023-04-18T04:52:32.761Z,81.33
2023-04-18T04:57:35.954Z,82.00
2023-04-18T05:02:39.199Z,81.36
2023-04-18T05:07:42.273Z,81.58
2023-04-18T05:12:45.311Z,82.05
2023-04-18T05:17:48.403Z,82.23
2023-04-18T05:22:51.506Z,81.76
2023-04-18T05:27:54.482Z,81.56
2023-04-18T05:32:57.427Z,80.97
2023-04-18T05:38:00.548Z,79.16
2023-04-18T05:43:03.428Z,78.22
2023-04-18T05:48:06.409Z,77.14
2023-04-18T05:53:09.893Z,76.59
2023-04-18T05:58:12.817Z,75.92
2023-04-18T06:03:16.730Z,75.64
2023-04-18T06:08:19.945Z,74.86
2023-04-18T06:13:22.860Z,73.67
2023-04-18T06:18:25.818Z,73.96
2023-04-18T06:23:28.786Z,73.85
2023-04-18T06:28:31.718Z,73.73
2023-04-18T06:33:35.572Z,74.08
2023-04-18T06:38:38.680Z,74.61
2023-04-18T06:43:52.160Z,74.39
2023-04-18T06:49:04.916Z,75.39
2023-04-18T06:54:07.868Z,75.04
2023-04-18T06:59:10.930Z,74.83
2023-04-18T07:04:14.629Z,74.92
2023-04-18T07:09:17.923Z,74.28
2023-04-18T07:14:24.927Z,75.40
2023-04-18T07:19:28.421Z,74.92
2023-04-18T07:24:31.572Z,74.46
2023-04-18T07:29:34.514Z,73.66
2023-04-18T07:34:37.773Z,72.53
2023-04-18T07:39:41.354Z,72.71
2023-04-18T07:44:44.664Z,71.58
2023-04-18T07:49:47.624Z,71.10
2023-04-18T07:54:51.310Z,70.35
2023-04-18T07:59:54.477Z,71.11
2023-04-18T08:04:58.522Z,68.88
2023-04-18T08:10:01.772Z,70.35
2023-04-18T08:15:05.812Z,69.49
2023-04-18T08:20:09.132Z,69.34
2023-04-18T08:25:12.418Z,67.40
2023-04-18T08:30:15.926Z,63.86
2023-04-18T08:35:18.914Z,63.93
2023-04-18T08:40:22.108Z,64.31
2023-04-18T08:45:25.024Z,65.10
2023-04-18T08:50:28.040Z,64.48
2023-04-18T08:55:31.094Z,65.24
2023-04-18T09:00:34.287Z,62.55
2023-04-18T09:05:38.543Z,63.80
2023-04-18T09:10:43.053Z,62.16
2023-04-18T09:15:56.176Z,62.34
2023-04-18T09:21:20.117Z,61.36
2023-04-18T09:26:36.345Z,60.58
2023-04-18T09:32:01.599Z,58.81
2023-04-18T09:37:13.588Z,58.01
2023-04-18T09:42:18.268Z,57.17
2023-04-18T09:47:21.218Z,55.04
2023-04-18T09:52:28.254Z,54.68
2023-04-18T09:57:34.677Z,55.23
2023-04-18T10:02:50.538Z,54.57
2023-04-18T10:07:55.120Z,53.19
2023-04-18T10:13:00.271Z,53.91
2023-04-18T10:18:24.756Z,51.79
2023-04-18T10:23:37.195Z,51.86
2023-04-18T10:28:53.469Z,51.37
2023-04-18T10:34:05.316Z,49.95
2023-04-18T10:39:23.765Z,50.08
2023-04-18T10:44:27.659Z,49.48
2023-04-18T10:49:33.769Z,49.67
2023-04-18T10:54:38.152Z,49.10
2023-04-18T10:59:50.337Z,48.79
2023-04-18T11:04:58.817Z,48.87
2023-04-18T11:10:02.423Z,48.76
2023-04-18T11:15:25.783Z,48.08
2023-04-18T11:20:37.289Z,47.35
2023-04-18T11:25:40.646Z,45.93
2023-04-18T11:30:43.526Z,46.96
2023-04-18T11:35:49.290Z,47.00
2023-04-18T11:40:52.481Z,46.96
2023-04-18T11:45:58.268Z,47.49
2023-04-18T11:51:01.450Z,46.61
2023-04-18T11:56:05.994Z,45.62
2023-04-18T12:01:24.921Z,44.75
2023-04-18T12:06:29.728Z,43.97
2023-04-18T12:11:32.952Z,39.72
2023-04-18T12:16:36.033Z,35.31
2023-04-18T12:22:00.670Z,36.60
2023-04-18T12:27:04.013Z,37.58
2023-04-18T12:32:06.871Z,36.85
2023-04-18T12:37:10.060Z,37.91
2023-04-18T12:42:13.097Z,37.64
2023-04-18T12:47:15.967Z,37.02
2023-04-18T12:52:18.877Z,38.03
2023-04-18T12:57:22.205Z,35.65
2023-04-18T13:02:26.614Z,34.51
2023-04-18T13:07:29.770Z,35.14
2023-04-18T13:12:32.947Z,35.84
2023-04-18T13:17:36.971Z,31.94
2023-04-18T13:22:41.605Z,32.15
2023-04-18T13:27:45.952Z,32.78
2023-04-18T13:32:48.930Z,29.60
2023-04-18T13:37:51.937Z,27.83
2023-04-18T13:42:54.952Z,29.84
2023-04-18T13:47:57.797Z,27.33
2023-04-18T13:53:00.725Z,28.41
2023-04-18T13:58:03.640Z,25.41
2023-04-18T14:03:07.177Z,26.61
2023-04-18T14:08:10.404Z,24.60
2023-04-18T14:13:13.354Z,25.10
2023-04-18T14:18:21.496Z,25.57
2023-04-18T14:23:25.956Z,24.70
2023-04-18T14:28:29.068Z,25.23
2023-04-18T14:33:35.854Z,24.81
2023-04-18T14:38:38.777Z,26.31
2023-04-18T14:43:41.729Z,26.01
2023-04-18T14:48:46.880Z,26.76
2023-04-18T14:53:50.009Z,26.21
2023-04-18T14:58:52.872Z,26.91
2023-04-18T15:03:55.985Z,26.63
2023-04-18T15:08:58.925Z,26.93
2023-04-18T15:14:01.894Z,26.85
2023-04-18T15:19:04.806Z,26.84
2023-04-18T15:24:08.251Z,26.49
2023-04-18T15:29:11.651Z,26.52
2023-04-18T15:34:16.212Z,27.19
2023-04-18T15:39:23.255Z,26.29
2023-04-18T15:44:26.694Z,25.78
2023-04-18T15:49:29.631Z,27.34
2023-04-18T15:54:33.016Z,27.55
2023-04-18T15:59:36.361Z,28.65
2023-04-18T16:04:39.836Z,30.03
2023-04-18T16:09:42.603Z,30.82
2023-04-18T16:14:45.647Z,31.26
2023-04-18T16:19:48.800Z,32.48
2023-04-18T16:24:51.832Z,33.91
2023-04-18T16:29:55.254Z,33.88
2023-04-18T16:34:58.230Z,34.67
2023-04-18T16:40:01.308Z,34.88
2023-04-18T16:45:04.801Z,36.00
2023-04-18T16:50:09.449Z,35.45
2023-04-18T16:55:12.474Z,36.56
2023-04-18T17:00:16.630Z,37.42
2023-04-18T17:05:19.702Z,37.97
2023-04-18T17:10:22.797Z,38.91
2023-04-18T17:15:27.303Z,39.66
2023-04-18T17:20:30.221Z,39.79
2023-04-18T17:25:33.233Z,40.55
2023-04-18T17:30:42.717Z,41.28
2023-04-18T17:35:46.036Z,41.98
2023-04-18T17:40:49.003Z,42.34
2023-04-18T17:45:52.126Z,42.72
2023-04-18T17:50:55.167Z,43.41
2023-04-18T17:56:01.263Z,44.63
2023-04-18T18:01:04.274Z,45.28
2023-04-18T18:06:07.758Z,46.61
2023-04-18T18:11:10.914Z,46.86
2023-04-18T18:16:14.114Z,48.04
2023-04-18T18:21:18.249Z,48.28
2023-04-18T18:26:21.349Z,48.49
2023-04-18T18:31:25.028Z,48.53
2023-04-18T18:36:28.568Z,49.08
2023-04-18T18:41:31.589Z,49.36
2023-04-18T18:46:35.491Z,49.08
2023-04-18T18:51:38.610Z,49.44
2023-04-18T18:56:42.737Z,49.49
2023-04-18T19:01:45.829Z,49.46
2023-04-18T19:06:49.063Z,50.06
2023-04-18T19:11:52.133Z,49.40
2023-04-18T19:16:56.002Z,48.29
2023-04-18T19:22:01.177Z,47.88
2023-04-18T19:27:04.455Z,47.88
2023-04-18T19:32:07.547Z,47.92
2023-04-18T19:37:10.705Z,47.36
2023-04-18T19:42:13.843Z,46.82
2023-04-18T19:47:17.002Z,46.57
2023-04-18T19:52:20.014Z,47.12
2023-04-18T19:57:23.040Z,47.16
2023-04-18T20:02:26.271Z,47.78
2023-04-18T20:07:30.752Z,46.60
2023-04-18T20:12:34.328Z,47.32
2023-04-18T20:17:37.379Z,47.22
2023-04-18T20:22:41.865Z,47.72
2023-04-18T20:27:44.886Z,48.02
2023-04-18T20:32:47.889Z,49.12
2023-04-18T20:37:50.903Z,49.93
2023-04-18T20:42:57.897Z,50.78
2023-04-18T20:48:04.025Z,50.29
2023-04-18T20:53:07.066Z,49.96
2023-04-18T20:58:10.090Z,48.99
2023-04-18T21:03:14.064Z,48.55
2023-04-18T21:08:17.114Z,48.45
2023-04-18T21:13:20.151Z,48.41
2023-04-18T21:18:23.691Z,48.47
2023-04-18T21:23:26.622Z,48.67
2023-04-18T21:28:29.620Z,49.17
2023-04-18T21:33:32.372Z,48.96
2023-04-18T21:38:35.709Z,49.13
2023-04-18T21:43:38.650Z,49.94
2023-04-18T21:48:44.190Z,50.04
2023-04-18T21:53:47.342Z,50.33
2023-04-18T21:58:50.673Z,50.20
2023-04-18T22:03:53.893Z,50.25
2023-04-18T22:08:58.326Z,50.71
2023-04-18T22:14:01.774Z,51.35
2023-04-18T22:19:05.837Z,51.40
2023-04-18T22:24:09.367Z,51.55
2023-04-18T22:29:12.249Z,51.89
2023-04-18T22:34:15.499Z,51.34
2023-04-18T22:39:18.818Z,50.65
2023-04-18T22:44:21.823Z,50.70
2023-04-18T22:49:24.682Z,50.67
2023-04-18T22:54:27.706Z,50.29
2023-04-18T22:59:30.914Z,50.44
2023-04-18T23:04:34.240Z,50.58
2023-04-18T23:09:37.183Z,49.89
2023-04-18T23:14:41.805Z,50.22
2023-04-18T23:19:45.353Z,50.16
2023-04-18T23:24:48.200Z,50.15
2023-04-18T23:29:51.078Z,50.15
2023-04-18T23:34:54.175Z,49.43
2023-04-18T23:39:58.083Z,49.54
2023-04-18T23:45:06.072Z,49.34
2023-04-18T23:50:09.712Z,49.31
2023-04-18T23:55:12.762Z,48.12
